Huvudsida
METAR-TAF:

METAR-TAF

Flygplatser :

Ankara Esenboğa, Turkiet

latitud: 40-07N, longitud: 032-59E, höjd: 953 m

Aktuellt väderrapport

Denna rapport gjordes för 46 minuter sedan, klockan 13:50 UTC
Vind 8 kt från väst
Temperatur 6°C
Fuktighet 61%
Tryck 1019 hPa
Sikt 10 km eller mer
Spridda moln på en höjd av 4000 ft
Brutna moln på en höjd av 8000 ft

METAR: LTAC 161350Z 28008KT 9999 SCT040 BKN080 06/M01 Q1019 NOSIG RMK RWY21L 26008KT RWY03L 28006KT RWY21R 27007KT

Tid: 17:36 (14:36 UTC)

Väderprognos

Denna rapport gjordes för 3 timmar och 56 minuter sedan, klockan 10:40 UTC
Prognos gäller från 16 kl. 12 UTC till 17 kl. 12 UTC
Vind 2 kt varierande vindriktning
Sikt 10 km eller mer
Spridda moln på en höjd av 4000 ft
Brutna moln på en höjd av 10000 ft
Temporärt
från 16 kl. 12 UTC till 16 kl. 15 UTC
Vind 12 kt från väst

TAF: LTAC 161040Z 1612/1712 VRB02KT 9999 SCT040 BKN100 TEMPO 1612/1615 28012KT

Aktuella väderrapporter och prognoser från 4000 flygplatser (METAR- och TAF-rapporter).

De tillgängliga stationerna syns som gula och röda prickar på kartan.

För musen över prickarna för att se namnen på stationerna.

Klicka sedan för att få väderrapporter och prognoser.

För att ändra kartan: Klicka på de gröna knapparna med ett svart kors på för att zooma in; den gröna knappen med ett streck på för att zooma ut; eller på de gröna pilarna för angränsande kartor.


METAR-TAF: